Time;durP1;ratioP1;P1;durP2;ratioP2;P2;SDS_P1;SDS_P2;PMS_P1;PMS_P2;Temp;Humidity;BMP_temperature;BMP_pressure;BME280_temperature;BME280_humidity;BME280_pressure;Samples;Min_cycle;Max_cycle;Signal;HPM_P1;HPM_P2
2021/03/07 00:00:42;;;;;;;;;;;21.40;33.50;;;;;;500459;237;1029;-45
2021/03/07 00:02:43;;;;;;;;;;;21.40;33.50;;;;;;500418;237;1131;-45
2021/03/07 00:04:44;;;;;;;;;;;21.40;33.50;;;;;;500560;237;1166;-46
2021/03/07 00:06:46;;;;;;;;;;;21.40;33.60;;;;;;500819;237;1073;-45
2021/03/07 00:08:47;;;;;;;;;;;21.40;33.60;;;;;;500565;237;1109;-45
2021/03/07 00:10:48;;;;;;;;;;;21.40;33.50;;;;;;500409;237;2108;-45
2021/03/07 00:12:49;;;;;;;;;;;21.40;33.50;;;;;;500372;237;1176;-45
2021/03/07 00:14:51;;;;;;;;;;;21.40;33.50;;;;;;500849;237;1442;-45
2021/03/07 00:16:52;;;;;;;;;;;21.40;33.50;;;;;;500581;237;1020;-46
2021/03/07 00:18:53;;;;;;;;;;;21.40;33.50;;;;;;500583;237;1061;-45
2021/03/07 00:20:55;;;;;;;;;;;21.40;33.50;;;;;;500529;237;1048;-45
2021/03/07 00:22:56;;;;;;;;;;;21.40;33.50;;;;;;500563;237;1071;-46
2021/03/07 00:24:57;;;;;;;;;;;21.40;33.50;;;;;;500452;237;1312;-46
2021/03/07 00:26:59;;;;;;;;;;;21.40;33.50;;;;;;500574;237;1109;-45
2021/03/07 00:29:00;;;;;;;;;;;21.40;33.50;;;;;;500401;237;1033;-45
2021/03/07 00:31:01;;;;;;;;;;;21.40;33.50;;;;;;500644;237;2109;-45
2021/03/07 00:33:02;;;;;;;;;;;21.40;33.50;;;;;;500405;237;1056;-46
2021/03/07 00:35:04;;;;;;;;;;;21.40;33.50;;;;;;500495;237;1101;-46
2021/03/07 00:37:05;;;;;;;;;;;21.40;33.50;;;;;;500398;237;1064;-45
2021/03/07 00:39:06;;;;;;;;;;;21.50;33.50;;;;;;500389;237;1298;-46
2021/03/07 00:41:07;;;;;;;;;;;21.50;33.50;;;;;;500325;237;1252;-45
2021/03/07 00:43:09;;;;;;;;;;;21.50;33.50;;;;;;500489;237;1272;-46
2021/03/07 00:45:10;;;;;;;;;;;21.50;33.50;;;;;;500481;237;1077;-45
2021/03/07 00:47:11;;;;;;;;;;;21.50;33.50;;;;;;500726;237;1088;-46
2021/03/07 00:49:13;;;;;;;;;;;21.50;33.50;;;;;;500453;237;2132;-45
2021/03/07 00:51:14;;;;;;;;;;;21.50;33.50;;;;;;500432;237;1154;-45
2021/03/07 00:53:15;;;;;;;;;;;21.50;33.50;;;;;;500388;237;1144;-45
2021/03/07 00:55:16;;;;;;;;;;;21.50;33.50;;;;;;500521;237;1179;-45
2021/03/07 00:57:18;;;;;;;;;;;21.50;33.40;;;;;;500277;237;1207;-45
2021/03/07 00:59:19;;;;;;;;;;;21.50;33.50;;;;;;500732;237;971;-45
2021/03/07 01:01:20;;;;;;;;;;;21.50;33.50;;;;;;500343;237;1081;-45
2021/03/07 01:03:22;;;;;;;;;;;21.50;33.40;;;;;;500403;237;1203;-45
2021/03/07 01:05:23;;;;;;;;;;;21.50;33.50;;;;;;500683;237;1051;-45
2021/03/07 01:07:24;;;;;;;;;;;21.50;33.40;;;;;;500337;237;1144;-46
2021/03/07 01:09:25;;;;;;;;;;;21.50;33.40;;;;;;500670;237;2143;-45
2021/03/07 01:11:27;;;;;;;;;;;21.50;33.40;;;;;;500370;237;1304;-45
2021/03/07 01:13:28;;;;;;;;;;;21.50;33.40;;;;;;500427;237;1061;-45
2021/03/07 01:15:29;;;;;;;;;;;21.50;33.40;;;;;;500395;237;1089;-45
2021/03/07 01:17:30;;;;;;;;;;;21.50;33.40;;;;;;500807;237;1174;-45
2021/03/07 01:19:32;;;;;;;;;;;21.50;33.50;;;;;;500419;237;1017;-46
2021/03/07 01:21:33;;;;;;;;;;;21.50;33.50;;;;;;500563;237;1468;-45
2021/03/07 01:23:34;;;;;;;;;;;21.50;33.40;;;;;;500397;237;1116;-45
2021/03/07 01:25:36;;;;;;;;;;;21.50;33.40;;;;;;500464;237;1280;-46
2021/03/07 01:27:37;;;;;;;;;;;21.50;33.30;;;;;;500429;237;1161;-45
2021/03/07 01:29:38;;;;;;;;;;;21.50;33.40;;;;;;500360;237;2140;-45
2021/03/07 01:31:39;;;;;;;;;;;21.50;33.40;;;;;;500410;237;1303;-45
2021/03/07 01:33:41;;;;;;;;;;;21.50;33.40;;;;;;500410;237;1082;-45
2021/03/07 01:35:42;;;;;;;;;;;21.50;33.30;;;;;;500404;237;1080;-45
2021/03/07 01:37:43;;;;;;;;;;;21.50;33.40;;;;;;500414;237;1082;-45
2021/03/07 01:39:45;;;;;;;;;;;21.50;33.40;;;;;;500699;237;1039;-45
2021/03/07 01:41:46;;;;;;;;;;;21.60;33.40;;;;;;500606;237;1261;-45
2021/03/07 01:43:47;;;;;;;;;;;21.50;33.40;;;;;;500354;237;1045;-45
2021/03/07 01:45:48;;;;;;;;;;;21.60;33.40;;;;;;500429;237;1036;-45
2021/03/07 01:47:50;;;;;;;;;;;21.60;33.40;;;;;;500586;237;1044;-45
2021/03/07 01:49:51;;;;;;;;;;;21.60;33.40;;;;;;500460;237;2128;-45
2021/03/07 01:51:52;;;;;;;;;;;21.60;33.40;;;;;;500339;237;1072;-45
2021/03/07 01:53:53;;;;;;;;;;;21.60;33.30;;;;;;500624;237;1151;-45
2021/03/07 01:55:55;;;;;;;;;;;21.60;33.40;;;;;;500396;237;1168;-45
2021/03/07 01:57:56;;;;;;;;;;;21.60;33.40;;;;;;500592;237;1031;-45
2021/03/07 01:59:57;;;;;;;;;;;21.60;33.40;;;;;;500413;237;1104;-45
2021/03/07 02:01:59;;;;;;;;;;;21.60;33.30;;;;;;500666;237;1110;-45
2021/03/07 02:04:00;;;;;;;;;;;21.60;33.40;;;;;;500499;237;1053;-45
2021/03/07 02:06:01;;;;;;;;;;;21.60;33.40;;;;;;500487;237;1101;-45
2021/03/07 02:08:03;;;;;;;;;;;21.60;33.30;;;;;;500814;237;1049;-45
2021/03/07 02:10:04;;;;;;;;;;;21.60;33.40;;;;;;500551;237;2153;-45
2021/03/07 02:12:05;;;;;;;;;;;21.60;33.30;;;;;;500406;237;1209;-45
2021/03/07 02:14:07;;;;;;;;;;;21.60;33.30;;;;;;500565;237;1060;-45
2021/03/07 02:16:08;;;;;;;;;;;21.60;33.40;;;;;;500401;237;1073;-45
2021/03/07 02:18:09;;;;;;;;;;;21.60;33.40;;;;;;500382;237;1059;-45
2021/03/07 02:20:10;;;;;;;;;;;21.60;33.40;;;;;;500367;237;1007;-45
2021/03/07 02:22:12;;;;;;;;;;;21.60;33.30;;;;;;500429;237;1048;-45
2021/03/07 02:24:13;;;;;;;;;;;21.60;33.30;;;;;;500437;237;1039;-45
2021/03/07 02:26:15;;;;;;;;;;;21.60;33.30;;;;;;500374;237;1142;-45
2021/03/07 02:28:16;;;;;;;;;;;21.60;33.30;;;;;;500569;237;1098;-45
2021/03/07 02:30:17;;;;;;;;;;;21.60;33.30;;;;;;500424;237;2140;-45
2021/03/07 02:32:19;;;;;;;;;;;21.60;33.20;;;;;;500453;237;1045;-45
2021/03/07 02:34:20;;;;;;;;;;;21.60;33.20;;;;;;500432;237;1047;-45
2021/03/07 02:36:21;;;;;;;;;;;21.60;33.30;;;;;;500355;237;1147;-45
2021/03/07 02:38:23;;;;;;;;;;;21.60;33.30;;;;;;500604;237;1081;-45
2021/03/07 02:40:24;;;;;;;;;;;21.60;33.30;;;;;;500556;237;1180;-45
2021/03/07 02:42:25;;;;;;;;;;;21.60;33.30;;;;;;500367;237;1153;-45
2021/03/07 02:44:27;;;;;;;;;;;21.60;33.30;;;;;;500913;237;1077;-45
2021/03/07 02:46:28;;;;;;;;;;;21.60;33.30;;;;;;500350;237;1135;-45
2021/03/07 02:48:29;;;;;;;;;;;21.60;33.30;;;;;;500760;237;1028;-45
2021/03/07 02:50:30;;;;;;;;;;;21.60;33.20;;;;;;500419;237;2132;-45
2021/03/07 02:52:32;;;;;;;;;;;21.60;33.20;;;;;;500397;237;1416;-45
2021/03/07 02:54:33;;;;;;;;;;;21.70;33.30;;;;;;500622;237;1190;-45
2021/03/07 02:56:34;;;;;;;;;;;21.70;33.30;;;;;;500379;237;1687;-45
2021/03/07 02:58:35;;;;;;;;;;;21.70;33.20;;;;;;500635;237;1139;-45
2021/03/07 03:00:37;;;;;;;;;;;21.70;33.30;;;;;;500379;237;1105;-45
2021/03/07 03:02:39;;;;;;;;;;;21.70;33.20;;;;;;500392;237;1055;-45
2021/03/07 03:04:40;;;;;;;;;;;21.70;33.20;;;;;;500446;237;1064;-45
2021/03/07 03:06:41;;;;;;;;;;;21.70;33.30;;;;;;500527;237;1197;-45
2021/03/07 03:08:42;;;;;;;;;;;21.70;33.30;;;;;;500337;237;1021;-45
2021/03/07 03:10:44;;;;;;;;;;;21.70;33.30;;;;;;500377;237;2141;-45
2021/03/07 03:12:45;;;;;;;;;;;21.70;33.20;;;;;;500651;237;1174;-45
2021/03/07 03:14:46;;;;;;;;;;;21.70;33.20;;;;;;500522;237;1158;-45
2021/03/07 03:16:47;;;;;;;;;;;21.70;33.30;;;;;;500559;237;1014;-45
2021/03/07 03:18:49;;;;;;;;;;;21.60;33.20;;;;;;500387;237;1039;-45
2021/03/07 03:20:50;;;;;;;;;;;21.70;33.30;;;;;;500504;237;1211;-45
2021/03/07 03:22:51;;;;;;;;;;;21.60;33.20;;;;;;500414;237;1133;-45
2021/03/07 03:24:53;;;;;;;;;;;21.60;33.20;;;;;;500896;237;1235;-45
2021/03/07 03:27:01;;;;;;;;;;;21.60;33.20;;;;;;500545;237;1032;-45
2021/03/07 03:28:56;;;;;;;;;;;21.60;33.30;;;;;;500285;237;1401;-45
2021/03/07 03:30:56;;;;;;;;;;;21.60;33.20;;;;;;500365;237;2148;-45
2021/03/07 03:32:58;;;;;;;;;;;21.60;33.20;;;;;;500724;237;1156;-45
2021/03/07 03:34:59;;;;;;;;;;;21.60;33.20;;;;;;500438;237;1052;-45
2021/03/07 03:37:00;;;;;;;;;;;21.60;33.20;;;;;;500448;237;1186;-45
2021/03/07 03:39:01;;;;;;;;;;;21.70;33.30;;;;;;500481;237;1047;-45
2021/03/07 03:41:03;;;;;;;;;;;21.70;33.20;;;;;;500696;237;1480;-45
2021/03/07 03:43:04;;;;;;;;;;;21.60;33.20;;;;;;500365;237;1260;-45
2021/03/07 03:45:05;;;;;;;;;;;21.60;33.20;;;;;;500901;237;1046;-45
2021/03/07 03:47:07;;;;;;;;;;;21.60;33.20;;;;;;500504;237;1160;-45
2021/03/07 03:49:08;;;;;;;;;;;21.70;33.30;;;;;;500491;237;1041;-45
2021/03/07 03:51:09;;;;;;;;;;;21.60;33.20;;;;;;500350;237;2196;-45
2021/03/07 03:53:11;;;;;;;;;;;21.60;33.20;;;;;;500708;237;1084;-45
2021/03/07 03:55:12;;;;;;;;;;;21.70;33.20;;;;;;500386;237;1058;-45
2021/03/07 03:57:13;;;;;;;;;;;21.70;33.30;;;;;;500477;237;1177;-45
2021/03/07 03:59:14;;;;;;;;;;;21.70;33.20;;;;;;500416;237;1167;-45
2021/03/07 04:01:16;;;;;;;;;;;21.70;33.20;;;;;;500696;237;1180;-45
2021/03/07 04:03:17;;;;;;;;;;;21.70;33.30;;;;;;500403;237;1082;-45
2021/03/07 04:05:18;;;;;;;;;;;21.70;33.20;;;;;;500544;237;1025;-45
2021/03/07 04:07:20;;;;;;;;;;;21.70;33.20;;;;;;500331;237;1078;-45
2021/03/07 04:09:21;;;;;;;;;;;21.70;33.10;;;;;;500671;237;1069;-45
2021/03/07 04:11:22;;;;;;;;;;;21.70;33.10;;;;;;500505;237;2136;-45
2021/03/07 04:13:23;;;;;;;;;;;21.70;33.10;;;;;;500401;237;1130;-45
2021/03/07 04:15:27;;;;;;;;;;;21.70;33.10;;;;;;500376;237;1094;-45
2021/03/07 04:17:26;;;;;;;;;;;21.70;33.20;;;;;;500308;237;1271;-45
2021/03/07 04:19:27;;;;;;;;;;;21.70;33.20;;;;;;500432;237;1040;-45
2021/03/07 04:21:28;;;;;;;;;;;21.70;33.20;;;;;;500631;237;1670;-45
2021/03/07 04:23:30;;;;;;;;;;;21.70;33.20;;;;;;500366;237;1180;-45
2021/03/07 04:25:31;;;;;;;;;;;21.70;33.20;;;;;;500393;237;1165;-45
2021/03/07 04:27:32;;;;;;;;;;;21.70;33.20;;;;;;500404;237;1095;-45
2021/03/07 04:29:34;;;;;;;;;;;21.70;33.20;;;;;;500496;237;1111;-45
2021/03/07 04:31:35;;;;;;;;;;;21.70;33.20;;;;;;500381;237;2136;-45
2021/03/07 04:33:36;;;;;;;;;;;21.70;33.10;;;;;;500382;237;1048;-45
2021/03/07 04:35:37;;;;;;;;;;;21.70;33.20;;;;;;500592;237;1085;-45
2021/03/07 04:37:39;;;;;;;;;;;21.70;33.10;;;;;;500336;237;1161;-45
2021/03/07 04:39:40;;;;;;;;;;;21.70;33.10;;;;;;500419;237;1055;-45
2021/03/07 04:41:41;;;;;;;;;;;21.70;33.10;;;;;;500381;237;1303;-45
2021/03/07 04:43:43;;;;;;;;;;;21.70;33.10;;;;;;500705;237;1163;-45
2021/03/07 04:45:44;;;;;;;;;;;21.70;33.10;;;;;;500499;237;1143;-45
2021/03/07 04:47:45;;;;;;;;;;;21.70;33.10;;;;;;500401;237;1215;-45
2021/03/07 04:49:47;;;;;;;;;;;21.70;33.10;;;;;;500582;237;1025;-45
2021/03/07 04:51:48;;;;;;;;;;;21.70;33.10;;;;;;500371;237;2176;-45
2021/03/07 04:53:49;;;;;;;;;;;21.80;33.10;;;;;;500374;237;1073;-45
2021/03/07 04:55:51;;;;;;;;;;;21.80;33.00;;;;;;500360;237;1223;-45
2021/03/07 04:57:52;;;;;;;;;;;21.80;33.00;;;;;;500436;237;1108;-45
2021/03/07 04:59:53;;;;;;;;;;;21.80;33.00;;;;;;500435;237;1211;-45
2021/03/07 05:01:55;;;;;;;;;;;21.70;33.00;;;;;;500351;237;1096;-45
2021/03/07 05:03:56;;;;;;;;;;;21.70;33.00;;;;;;500546;237;1242;-45
2021/03/07 05:05:57;;;;;;;;;;;21.70;33.00;;;;;;500421;237;1051;-45
2021/03/07 05:07:59;;;;;;;;;;;21.70;33.00;;;;;;500420;237;1190;-45
2021/03/07 05:10:00;;;;;;;;;;;21.80;33.10;;;;;;500386;237;1210;-45
2021/03/07 05:12:01;;;;;;;;;;;21.70;33.00;;;;;;500450;237;2184;-45
2021/03/07 05:14:02;;;;;;;;;;;21.80;33.10;;;;;;500641;237;1284;-45
2021/03/07 05:16:04;;;;;;;;;;;21.70;33.10;;;;;;500606;237;1067;-45
2021/03/07 05:18:06;;;;;;;;;;;21.70;33.00;;;;;;500853;237;1025;-45
2021/03/07 05:20:07;;;;;;;;;;;21.80;33.10;;;;;;500374;237;1019;-45
2021/03/07 05:22:08;;;;;;;;;;;21.80;33.10;;;;;;500362;237;1051;-45
2021/03/07 05:24:10;;;;;;;;;;;21.80;33.00;;;;;;500760;237;1035;-45
2021/03/07 05:26:11;;;;;;;;;;;21.80;33.00;;;;;;500358;237;1262;-45
2021/03/07 05:28:12;;;;;;;;;;;21.80;33.00;;;;;;500638;237;1068;-45
2021/03/07 05:30:13;;;;;;;;;;;21.70;33.00;;;;;;500426;237;1219;-45
2021/03/07 05:32:15;;;;;;;;;;;21.80;33.00;;;;;;500530;237;2192;-45
2021/03/07 05:34:16;;;;;;;;;;;21.70;33.00;;;;;;500649;237;1017;-45
2021/03/07 05:36:17;;;;;;;;;;;21.80;33.10;;;;;;500560;237;1110;-45
2021/03/07 05:38:19;;;;;;;;;;;21.70;33.00;;;;;;500569;237;1069;-45
2021/03/07 05:40:20;;;;;;;;;;;21.70;33.00;;;;;;500713;237;1029;-45
2021/03/07 05:42:21;;;;;;;;;;;21.80;33.10;;;;;;500849;237;1292;-45
2021/03/07 05:44:22;;;;;;;;;;;21.70;33.10;;;;;;500638;237;1156;-45
2021/03/07 05:46:24;;;;;;;;;;;21.70;33.00;;;;;;500556;237;1198;-45
2021/03/07 05:48:25;;;;;;;;;;;21.70;33.00;;;;;;500438;237;1081;-45
2021/03/07 05:50:27;;;;;;;;;;;21.70;33.10;;;;;;500334;237;1267;-45
2021/03/07 05:52:28;;;;;;;;;;;21.80;33.00;;;;;;500841;237;2184;-45
2021/03/07 05:54:29;;;;;;;;;;;21.80;33.00;;;;;;500521;237;1026;-45
2021/03/07 05:56:31;;;;;;;;;;;21.80;33.00;;;;;;500554;237;1184;-45
2021/03/07 05:58:32;;;;;;;;;;;21.80;33.00;;;;;;500394;237;1085;-45
2021/03/07 06:00:33;;;;;;;;;;;21.80;33.00;;;;;;500534;237;1121;-45
2021/03/07 06:02:34;;;;;;;;;;;21.80;33.00;;;;;;500389;237;1144;-45
2021/03/07 06:04:36;;;;;;;;;;;21.80;33.00;;;;;;500487;237;1037;-45
2021/03/07 06:06:37;;;;;;;;;;;21.80;33.00;;;;;;500458;237;995;-45
2021/03/07 06:08:38;;;;;;;;;;;21.80;33.00;;;;;;500502;237;1052;-45
2021/03/07 06:10:39;;;;;;;;;;;21.80;33.00;;;;;;500558;237;1010;-45
2021/03/07 06:12:41;;;;;;;;;;;21.80;33.00;;;;;;500544;237;2136;-45
2021/03/07 06:14:42;;;;;;;;;;;21.80;33.00;;;;;;500379;237;1160;-45
2021/03/07 06:16:43;;;;;;;;;;;21.80;33.00;;;;;;500571;237;1066;-45
2021/03/07 06:18:44;;;;;;;;;;;21.80;33.00;;;;;;500577;237;1107;-45
2021/03/07 06:20:46;;;;;;;;;;;21.80;33.00;;;;;;500535;237;1031;-45
2021/03/07 06:22:47;;;;;;;;;;;21.80;33.00;;;;;;500549;237;1055;-45
2021/03/07 06:24:48;;;;;;;;;;;21.80;33.00;;;;;;500379;237;1096;-45
2021/03/07 06:26:50;;;;;;;;;;;21.80;33.00;;;;;;500578;237;1057;-46
2021/03/07 06:28:51;;;;;;;;;;;21.80;33.00;;;;;;500387;237;1066;-45
2021/03/07 06:30:52;;;;;;;;;;;21.80;33.00;;;;;;500503;237;1144;-45
2021/03/07 06:32:53;;;;;;;;;;;21.70;33.00;;;;;;500469;237;2168;-45
2021/03/07 06:34:55;;;;;;;;;;;21.80;33.00;;;;;;500496;237;1080;-45
2021/03/07 06:36:56;;;;;;;;;;;21.80;33.00;;;;;;500744;237;1040;-45
2021/03/07 06:38:57;;;;;;;;;;;21.80;33.00;;;;;;500516;237;1078;-45
2021/03/07 06:40:59;;;;;;;;;;;21.80;32.90;;;;;;500360;237;1016;-45
2021/03/07 06:43:00;;;;;;;;;;;21.80;32.90;;;;;;500464;237;1024;-45
2021/03/07 06:45:01;;;;;;;;;;;21.30;33.60;;;;;;500589;237;1128;-45
2021/03/07 06:47:02;;;;;;;;;;;20.60;34.80;;;;;;500460;237;1072;-45
2021/03/07 06:49:04;;;;;;;;;;;20.10;35.80;;;;;;500494;237;1057;-45
2021/03/07 06:51:05;;;;;;;;;;;19.70;36.50;;;;;;500267;237;1044;-45
2021/03/07 06:53:06;;;;;;;;;;;19.40;37.00;;;;;;500395;237;2097;-45
2021/03/07 06:55:09;;;;;;;;;;;19.20;37.50;;;;;;500482;237;1048;-45
2021/03/07 06:57:09;;;;;;;;;;;19.00;37.80;;;;;;500441;237;2259;-45
2021/03/07 06:59:10;;;;;;;;;;;18.90;38.10;;;;;;500728;237;1026;-45
2021/03/07 07:01:11;;;;;;;;;;;18.80;38.20;;;;;;500548;237;1213;-45
2021/03/07 07:03:13;;;;;;;;;;;18.70;38.40;;;;;;500893;237;963;-45
2021/03/07 07:05:14;;;;;;;;;;;18.60;38.60;;;;;;500564;237;1051;-45
2021/03/07 07:07:17;;;;;;;;;;;18.60;38.70;;;;;;500388;237;969;-45
2021/03/07 07:09:18;;;;;;;;;;;18.50;38.70;;;;;;500451;237;1074;-45
2021/03/07 07:11:19;;;;;;;;;;;18.50;38.80;;;;;;500444;237;1046;-45
2021/03/07 07:13:20;;;;;;;;;;;18.40;38.90;;;;;;500483;237;2180;-45
2021/03/07 07:15:22;;;;;;;;;;;18.40;39.00;;;;;;500367;237;1115;-45
2021/03/07 07:17:23;;;;;;;;;;;18.30;39.00;;;;;;500623;237;1066;-45
2021/03/07 07:19:24;;;;;;;;;;;18.30;39.10;;;;;;500556;237;1042;-45
2021/03/07 07:21:25;;;;;;;;;;;18.20;39.20;;;;;;500384;237;1027;-45
2021/03/07 07:23:27;;;;;;;;;;;18.20;39.30;;;;;;500396;237;1060;-44
2021/03/07 07:25:28;;;;;;;;;;;18.20;39.30;;;;;;500304;237;1061;-45
2021/03/07 07:27:29;;;;;;;;;;;18.10;39.30;;;;;;500507;237;1075;-45
2021/03/07 07:29:30;;;;;;;;;;;18.20;39.40;;;;;;500437;237;1057;-45
2021/03/07 07:31:32;;;;;;;;;;;18.10;39.40;;;;;;500322;237;2200;-45
2021/03/07 07:33:35;;;;;;;;;;;18.00;39.40;;;;;;500567;237;1126;-45
2021/03/07 07:35:36;;;;;;;;;;;18.00;39.60;;;;;;500392;237;1067;-45
2021/03/07 07:37:37;;;;;;;;;;;18.00;39.60;;;;;;500521;237;1026;-45
2021/03/07 07:39:39;;;;;;;;;;;17.90;39.60;;;;;;500536;237;1008;-45
2021/03/07 07:41:40;;;;;;;;;;;17.90;39.60;;;;;;500483;237;1116;-45
2021/03/07 07:43:41;;;;;;;;;;;17.90;39.70;;;;;;500250;237;1118;-45
2021/03/07 07:45:42;;;;;;;;;;;17.90;39.70;;;;;;500317;237;1262;-45
2021/03/07 07:47:44;;;;;;;;;;;17.80;39.70;;;;;;500638;237;1057;-45
2021/03/07 07:49:45;;;;;;;;;;;17.80;39.70;;;;;;500292;237;1075;-45
2021/03/07 07:51:46;;;;;;;;;;;17.80;39.70;;;;;;500745;237;2120;-45
2021/03/07 07:53:47;;;;;;;;;;;17.80;39.70;;;;;;500404;237;1102;-45
2021/03/07 07:55:49;;;;;;;;;;;17.70;39.70;;;;;;500281;237;1043;-45
2021/03/07 07:57:51;;;;;;;;;;;17.70;39.70;;;;;;500292;237;1104;-45
2021/03/07 07:59:52;;;;;;;;;;;17.70;39.70;;;;;;500563;237;1784;-45
2021/03/07 08:01:54;;;;;;;;;;;17.70;39.70;;;;;;500398;237;1178;-45
2021/03/07 08:03:54;;;;;;;;;;;17.80;39.70;;;;;;500376;237;2206;-44
2021/03/07 08:05:56;;;;;;;;;;;18.00;39.40;;;;;;500447;237;1079;-45
2021/03/07 08:07:57;;;;;;;;;;;18.40;38.40;;;;;;500307;237;1068;-45
2021/03/07 08:09:58;;;;;;;;;;;18.90;37.30;;;;;;500281;237;1022;-45
2021/03/07 08:11:59;;;;;;;;;;;19.30;36.70;;;;;;500260;237;2129;-45
2021/03/07 08:14:01;;;;;;;;;;;19.50;36.20;;;;;;500338;237;1065;-45
2021/03/07 08:16:02;;;;;;;;;;;19.70;35.80;;;;;;500273;237;1698;-45
2021/03/07 08:18:03;;;;;;;;;;;19.80;35.50;;;;;;500665;237;1104;-45
2021/03/07 08:20:04;;;;;;;;;;;19.90;35.30;;;;;;500781;237;1053;-45
2021/03/07 08:22:07;;;;;;;;;;;20.00;35.20;;;;;;500553;237;1044;-45
2021/03/07 08:24:08;;;;;;;;;;;20.10;35.00;;;;;;500359;237;1406;-45
2021/03/07 08:26:11;;;;;;;;;;;20.10;34.90;;;;;;500214;237;1421;-45
2021/03/07 08:28:13;;;;;;;;;;;20.20;34.80;;;;;;500384;237;1100;-45
2021/03/07 08:30:14;;;;;;;;;;;20.20;34.80;;;;;;500690;237;1183;-45
2021/03/07 08:32:15;;;;;;;;;;;20.30;34.70;;;;;;500130;237;2175;-45
2021/03/07 08:34:17;;;;;;;;;;;20.30;34.70;;;;;;500359;237;1102;-45
2021/03/07 08:36:18;;;;;;;;;;;20.30;34.50;;;;;;500526;237;1218;-45
2021/03/07 08:38:19;;;;;;;;;;;20.40;34.50;;;;;;500581;237;1132;-45
2021/03/07 08:40:20;;;;;;;;;;;20.40;34.40;;;;;;500452;237;1085;-45
2021/03/07 08:42:22;;;;;;;;;;;20.40;34.30;;;;;;500280;237;1505;-45
2021/03/07 08:44:23;;;;;;;;;;;20.50;34.30;;;;;;500544;237;1107;-45
2021/03/07 08:46:25;;;;;;;;;;;20.50;34.30;;;;;;500370;237;1228;-45
2021/03/07 08:48:26;;;;;;;;;;;20.50;34.30;;;;;;500438;237;1140;-45
2021/03/07 08:50:27;;;;;;;;;;;20.60;34.20;;;;;;500477;237;1266;-45
2021/03/07 08:52:29;;;;;;;;;;;20.60;34.20;;;;;;500322;237;2175;-45
2021/03/07 08:54:30;;;;;;;;;;;20.60;34.00;;;;;;500557;237;1034;-45
2021/03/07 08:56:31;;;;;;;;;;;20.70;34.00;;;;;;500388;237;1265;-45
2021/03/07 08:58:33;;;;;;;;;;;20.70;34.00;;;;;;500634;237;1067;-45
2021/03/07 09:00:34;;;;;;;;;;;20.70;33.90;;;;;;500272;237;1196;-45
2021/03/07 09:02:35;;;;;;;;;;;20.70;33.90;;;;;;500261;237;1236;-45
2021/03/07 09:04:37;;;;;;;;;;;20.80;33.90;;;;;;500617;237;1027;-45
2021/03/07 09:06:38;;;;;;;;;;;20.80;33.80;;;;;;500344;237;1301;-45
2021/03/07 09:08:39;;;;;;;;;;;20.80;33.80;;;;;;500352;237;1030;-45
2021/03/07 09:10:40;;;;;;;;;;;20.80;33.70;;;;;;500434;237;1120;-45
2021/03/07 09:12:42;;;;;;;;;;;20.90;33.80;;;;;;500346;237;2188;-45
2021/03/07 09:14:43;;;;;;;;;;;20.90;33.70;;;;;;500384;237;1156;-45
2021/03/07 09:16:44;;;;;;;;;;;20.90;33.70;;;;;;500308;237;1442;-45
2021/03/07 09:18:45;;;;;;;;;;;20.90;33.70;;;;;;500653;237;1030;-45
2021/03/07 09:20:47;;;;;;;;;;;20.90;33.70;;;;;;500362;237;999;-45
2021/03/07 09:22:48;;;;;;;;;;;21.00;33.60;;;;;;500328;237;1047;-45
2021/03/07 09:24:49;;;;;;;;;;;21.00;33.60;;;;;;500483;237;1139;-45
2021/03/07 09:26:51;;;;;;;;;;;21.00;33.60;;;;;;500383;237;1242;-45
2021/03/07 09:28:52;;;;;;;;;;;21.00;33.60;;;;;;500464;237;1092;-45
2021/03/07 09:30:53;;;;;;;;;;;21.00;33.60;;;;;;500384;237;1211;-45
2021/03/07 09:32:54;;;;;;;;;;;21.00;33.60;;;;;;500307;237;2228;-45
2021/03/07 09:34:56;;;;;;;;;;;21.00;33.60;;;;;;500510;237;1041;-46
2021/03/07 09:36:57;;;;;;;;;;;21.00;33.50;;;;;;500337;237;1382;-45
2021/03/07 09:38:58;;;;;;;;;;;21.00;33.50;;;;;;500316;237;1043;-45
2021/03/07 09:41:00;;;;;;;;;;;21.10;33.50;;;;;;500336;237;1410;-45
2021/03/07 09:43:01;;;;;;;;;;;21.10;33.50;;;;;;500276;237;1164;-45
2021/03/07 09:45:02;;;;;;;;;;;21.10;33.50;;;;;;500317;237;1113;-45
2021/03/07 09:47:03;;;;;;;;;;;21.10;33.50;;;;;;500578;237;1312;-45
2021/03/07 09:49:05;;;;;;;;;;;21.10;33.50;;;;;;500562;237;1087;-45
2021/03/07 09:51:06;;;;;;;;;;;21.10;33.40;;;;;;500384;237;1187;-45
2021/03/07 09:53:07;;;;;;;;;;;21.10;33.40;;;;;;500396;237;2176;-45
2021/03/07 09:55:08;;;;;;;;;;;21.10;33.40;;;;;;500345;237;1051;-45
2021/03/07 09:57:10;;;;;;;;;;;21.20;33.40;;;;;;500348;237;1075;-45
2021/03/07 09:59:11;;;;;;;;;;;21.20;33.40;;;;;;500344;237;1050;-45
2021/03/07 10:01:12;;;;;;;;;;;21.20;33.40;;;;;;500264;237;1123;-45
2021/03/07 10:03:14;;;;;;;;;;;21.20;33.40;;;;;;500355;237;1184;-45
2021/03/07 10:05:15;;;;;;;;;;;21.20;33.30;;;;;;500360;237;1124;-45
2021/03/07 10:07:18;;;;;;;;;;;21.20;33.30;;;;;;500386;237;1057;-45
2021/03/07 10:09:17;;;;;;;;;;;21.20;33.20;;;;;;500754;237;2032;-45
2021/03/07 10:11:19;;;;;;;;;;;21.20;33.30;;;;;;500511;237;1128;-45
2021/03/07 10:13:20;;;;;;;;;;;21.20;33.30;;;;;;500432;237;2180;-45
2021/03/07 10:15:21;;;;;;;;;;;21.20;33.30;;;;;;500601;237;1117;-45
2021/03/07 10:17:23;;;;;;;;;;;21.20;33.30;;;;;;500317;237;1149;-45
2021/03/07 10:19:24;;;;;;;;;;;21.20;33.20;;;;;;500389;237;1059;-45
2021/03/07 10:21:25;;;;;;;;;;;21.20;33.20;;;;;;500319;237;1177;-45
2021/03/07 10:23:26;;;;;;;;;;;21.20;33.20;;;;;;500757;237;1075;-45
2021/03/07 10:25:28;;;;;;;;;;;21.20;33.20;;;;;;500579;237;1165;-45
2021/03/07 10:27:29;;;;;;;;;;;21.30;33.30;;;;;;500289;237;1175;-45
2021/03/07 10:29:30;;;;;;;;;;;21.30;33.30;;;;;;500206;237;1051;-45
2021/03/07 10:31:32;;;;;;;;;;;21.20;33.20;;;;;;500308;237;1216;-45
2021/03/07 10:33:33;;;;;;;;;;;21.30;33.30;;;;;;500326;237;2149;-45
2021/03/07 10:35:34;;;;;;;;;;;21.30;33.30;;;;;;500458;237;1062;-45
2021/03/07 10:37:36;;;;;;;;;;;21.30;33.30;;;;;;500263;237;1017;-45
2021/03/07 10:39:37;;;;;;;;;;;21.30;33.20;;;;;;500349;237;1118;-45
2021/03/07 10:41:38;;;;;;;;;;;21.30;33.20;;;;;;500352;237;1102;-45
2021/03/07 10:43:39;;;;;;;;;;;21.30;33.20;;;;;;500414;237;1063;-45
2021/03/07 10:45:41;;;;;;;;;;;21.30;33.20;;;;;;500352;237;1043;-45
2021/03/07 10:47:42;;;;;;;;;;;21.30;33.20;;;;;;500303;234;1355;-45
2021/03/07 10:49:43;;;;;;;;;;;21.30;33.20;;;;;;500709;237;1254;-45
2021/03/07 10:51:44;;;;;;;;;;;21.30;33.10;;;;;;500374;237;1111;-45
2021/03/07 10:53:46;;;;;;;;;;;21.30;33.10;;;;;;500265;237;2137;-45
2021/03/07 10:55:47;;;;;;;;;;;21.30;33.10;;;;;;500307;237;1120;-45
2021/03/07 10:57:48;;;;;;;;;;;21.40;33.20;;;;;;500298;237;1113;-45
2021/03/07 10:59:51;;;;;;;;;;;21.40;33.20;;;;;;500645;237;1025;-45
2021/03/07 11:01:52;;;;;;;;;;;21.40;33.20;;;;;;500462;237;2328;-45
2021/03/07 11:03:53;;;;;;;;;;;21.40;33.20;;;;;;500406;237;1170;-45
2021/03/07 11:05:54;;;;;;;;;;;21.40;33.10;;;;;;500354;237;1177;-45
2021/03/07 11:07:55;;;;;;;;;;;21.40;33.10;;;;;;500405;237;1093;-45
2021/03/07 11:09:57;;;;;;;;;;;21.40;33.10;;;;;;500433;237;1076;-45
2021/03/07 11:11:58;;;;;;;;;;;21.40;33.10;;;;;;500447;237;1321;-45
2021/03/07 11:13:59;;;;;;;;;;;21.40;33.10;;;;;;500442;237;2180;-45
2021/03/07 11:16:01;;;;;;;;;;;21.40;33.10;;;;;;500855;237;1218;-45
2021/03/07 11:18:03;;;;;;;;;;;21.40;33.10;;;;;;500333;237;1248;-45
2021/03/07 11:20:03;;;;;;;;;;;21.40;33.10;;;;;;500351;237;1427;-45
2021/03/07 11:22:04;;;;;;;;;;;21.50;33.10;;;;;;500478;237;1237;-45
2021/03/07 11:24:06;;;;;;;;;;;21.40;33.10;;;;;;500520;237;1097;-45
2021/03/07 11:26:07;;;;;;;;;;;21.40;33.10;;;;;;500613;237;1464;-45
2021/03/07 11:28:08;;;;;;;;;;;21.40;33.10;;;;;;500483;237;1043;-45
2021/03/07 11:30:10;;;;;;;;;;;21.40;33.10;;;;;;500394;237;1073;-45
2021/03/07 11:32:11;;;;;;;;;;;21.40;33.10;;;;;;500337;237;1308;-45
2021/03/07 11:34:13;;;;;;;;;;;21.50;33.20;;;;;;500500;237;2147;-45
2021/03/07 11:36:14;;;;;;;;;;;21.40;33.10;;;;;;500770;237;1208;-45
2021/03/07 11:38:15;;;;;;;;;;;21.40;33.10;;;;;;500327;237;1109;-45
2021/03/07 11:40:16;;;;;;;;;;;21.50;33.10;;;;;;500334;237;1055;-45
2021/03/07 11:42:18;;;;;;;;;;;21.50;33.10;;;;;;500283;237;1143;-45
2021/03/07 11:44:19;;;;;;;;;;;21.40;33.10;;;;;;500486;237;1102;-45
2021/03/07 11:46:20;;;;;;;;;;;21.40;33.10;;;;;;500323;237;1157;-45
2021/03/07 11:48:22;;;;;;;;;;;21.40;33.10;;;;;;500377;237;1143;-45
2021/03/07 11:50:23;;;;;;;;;;;21.50;33.20;;;;;;500276;237;1253;-45
2021/03/07 11:52:25;;;;;;;;;;;21.50;33.10;;;;;;500346;237;1228;-45
2021/03/07 11:54:26;;;;;;;;;;;21.50;33.10;;;;;;500329;237;2129;-45
2021/03/07 11:56:27;;;;;;;;;;;21.50;33.10;;;;;;500371;237;1379;-45